Time;durP1;ratioP1;P1;durP2;ratioP2;P2;SDS_P1;SDS_P2;PMS_P1;PMS_P2;Temp;Humidity;BMP_temperature;BMP_pressure;BME280_temperature;BME280_humidity;BME280_pressure;Samples;Min_cycle;Max_cycle;Signal;HPM_P1;HPM_P2
2021/01/06 00:01:33;;;;;;;20.70;15.57;;;4.60;99.90;;;;;;5038824;28;20175;-59
2021/01/06 00:03:58;;;;;;;21.80;17.07;;;4.60;99.90;;;;;;5023350;28;20172;-58
2021/01/06 00:06:28;;;;;;;20.33;17.00;;;4.70;99.90;;;;;;5018720;28;20171;-58
2021/01/06 00:08:54;;;;;;;18.97;15.73;;;4.70;99.90;;;;;;5018017;28;20235;-57
2021/01/06 00:11:22;;;;;;;19.10;14.87;;;4.70;99.90;;;;;;5018532;28;20404;-58
2021/01/06 00:13:50;;;;;;;17.90;15.20;;;4.60;99.90;;;;;;5018036;28;20183;-58
2021/01/06 00:16:15;;;;;;;18.83;15.03;;;4.60;99.90;;;;;;5018435;28;20414;-59
2021/01/06 00:18:41;;;;;;;19.63;16.30;;;4.40;99.90;;;;;;5019157;28;20501;-59
2021/01/06 00:21:06;;;;;;;26.13;18.27;;;4.20;99.90;;;;;;5018529;28;20176;-57
2021/01/06 00:23:32;;;;;;;15.87;14.17;;;4.20;99.90;;;;;;5019008;28;20176;-59
2021/01/06 00:25:58;;;;;;;21.23;17.13;;;4.30;99.90;;;;;;5019265;28;20184;-59
2021/01/06 00:28:23;;;;;;;18.70;14.80;;;4.30;99.90;;;;;;5017594;28;20192;-57
2021/01/06 00:30:52;;;;;;;22.03;16.27;;;4.30;99.90;;;;;;5017415;28;20188;-58
2021/01/06 00:33:21;;;;;;;20.00;15.40;;;4.40;99.90;;;;;;5018162;28;20222;-58
2021/01/06 00:35:55;;;;;;;22.63;17.00;;;4.20;99.90;;;;;;5018313;28;20411;-57
2021/01/06 00:38:20;;;;;;;18.53;15.40;;;4.20;99.90;;;;;;5017985;28;20856;-58
2021/01/06 00:40:46;;;;;;;21.03;16.50;;;4.30;99.90;;;;;;5018626;28;20435;-59
2021/01/06 00:43:15;;;;;;;20.07;15.07;;;4.20;99.90;;;;;;5017644;28;20168;-57
2021/01/06 00:45:41;;;;;;;23.50;17.43;;;4.10;99.90;;;;;;5018276;28;20422;-58
2021/01/06 00:48:08;;;;;;;22.60;17.00;;;3.90;99.90;;;;;;5020418;28;20462;-58
2021/01/06 00:50:34;;;;;;;23.00;17.73;;;4.10;99.90;;;;;;5018543;28;20791;-58
2021/01/06 00:53:00;;;;;;;19.30;14.47;;;4.10;99.90;;;;;;5017561;28;20413;-58
2021/01/06 00:55:27;;;;;;;20.67;14.97;;;4.00;99.90;;;;;;5017753;28;20509;-57
2021/01/06 00:57:54;;;;;;;21.37;16.00;;;4.00;99.90;;;;;;5018300;28;20440;-57
2021/01/06 01:00:22;;;;;;;20.60;15.10;;;3.90;99.90;;;;;;5017319;28;20781;-57
2021/01/06 01:02:51;;;;;;;21.87;17.33;;;4.00;99.90;;;;;;5018031;28;20508;-56
2021/01/06 01:05:19;;;;;;;20.43;15.57;;;4.00;99.90;;;;;;5017805;28;20410;-56
2021/01/06 01:07:44;;;;;;;20.40;15.03;;;3.90;99.90;;;;;;5018213;28;20498;-58
2021/01/06 01:10:20;;;;;;;21.43;16.10;;;4.00;99.90;;;;;;5019106;28;21014;-57
2021/01/06 01:12:48;;;;;;;23.10;16.73;;;4.00;99.90;;;;;;5018112;28;20206;-54
2021/01/06 01:15:14;;;;;;;21.60;16.17;;;4.10;99.90;;;;;;5017445;28;20888;-58
2021/01/06 01:17:44;;;;;;;22.13;16.00;;;4.10;99.90;;;;;;5016598;28;20418;-60
2021/01/06 01:20:10;;;;;;;18.33;15.03;;;4.00;99.90;;;;;;5017834;28;20453;-58
2021/01/06 01:22:35;;;;;;;19.20;15.83;;;4.10;99.90;;;;;;5017534;28;20484;-58
2021/01/06 01:25:01;;;;;;;21.60;14.90;;;3.90;99.90;;;;;;5017674;28;20482;-59
2021/01/06 01:27:26;;;;;;;19.03;15.03;;;3.70;99.90;;;;;;5016698;28;20199;-58
2021/01/06 01:29:52;;;;;;;19.20;14.60;;;3.80;99.90;;;;;;5016485;28;20679;-57
2021/01/06 01:32:21;;;;;;;16.30;13.90;;;3.90;99.90;;;;;;5017455;28;20172;-59
2021/01/06 01:34:46;;;;;;;20.47;15.47;;;3.90;99.90;;;;;;5017665;28;20168;-57
2021/01/06 01:37:12;;;;;;;18.30;14.70;;;3.90;99.90;;;;;;5017115;28;20470;-58
2021/01/06 01:39:37;;;;;;;17.40;14.57;;;4.00;99.90;;;;;;5016968;28;20199;-56
2021/01/06 01:42:03;;;;;;;17.40;14.60;;;4.30;99.90;;;;;;5016792;28;20191;-59
2021/01/06 01:44:29;;;;;;;19.07;13.97;;;4.20;99.90;;;;;;5016514;28;20172;-58
2021/01/06 01:47:15;;;;;;;17.30;13.97;;;4.00;99.90;;;;;;5017785;28;20230;-59
2021/01/06 01:49:47;;;;;;;19.00;14.23;;;3.90;99.90;;;;;;5017110;28;20623;-59
2021/01/06 01:52:35;;;;;;;20.67;15.57;;;4.00;99.90;;;;;;5017097;28;20759;-58
2021/01/06 01:55:02;;;;;;;18.33;14.10;;;4.00;99.90;;;;;;5017880;28;20502;-59
2021/01/06 01:57:34;;;;;;;16.13;13.33;;;4.00;99.90;;;;;;5017153;28;20408;-60
2021/01/06 02:00:07;;;;;;;19.63;14.37;;;4.10;99.90;;;;;;5016248;28;20939;-59
2021/01/06 02:02:46;;;;;;;16.07;13.20;;;4.10;99.90;;;;;;5017441;28;20403;-60
2021/01/06 02:05:22;;;;;;;21.40;15.57;;;3.80;99.90;;;;;;5018319;28;20398;-59
2021/01/06 02:07:56;;;;;;;19.57;15.07;;;3.90;99.90;;;;;;5016734;28;20442;-59
2021/01/06 02:10:36;;;;;;;18.50;14.90;;;4.10;99.90;;;;;;5016437;28;20502;-57
2021/01/06 02:13:08;;;;;;;20.33;15.13;;;4.00;99.90;;;;;;5016174;28;20403;-58
2021/01/06 02:15:46;;;;;;;20.60;13.43;;;4.00;99.90;;;;;;5015775;28;20384;-59
2021/01/06 02:18:13;;;;;;;18.83;14.63;;;4.00;99.90;;;;;;5016911;28;20387;-58
2021/01/06 02:20:39;;;;;;;21.93;14.20;;;4.10;99.90;;;;;;5020734;28;20445;-59
2021/01/06 02:23:05;;;;;;;19.03;14.70;;;4.10;99.90;;;;;;5021218;28;20763;-59
2021/01/06 02:25:32;;;;;;;18.20;14.40;;;4.10;99.90;;;;;;5021554;28;20275;-59
2021/01/06 02:27:59;;;;;;;23.37;15.07;;;4.10;99.90;;;;;;5021672;28;20863;-58
2021/01/06 02:30:26;;;;;;;16.53;13.37;;;4.10;99.90;;;;;;5020156;28;20422;-59
2021/01/06 02:32:52;;;;;;;17.67;14.70;;;4.20;99.90;;;;;;5021233;28;20395;-59
2021/01/06 02:35:20;;;;;;;18.87;15.40;;;4.20;99.90;;;;;;5021390;28;20407;-59
2021/01/06 02:37:46;;;;;;;18.87;14.17;;;3.80;99.90;;;;;;5021831;28;20403;-59
2021/01/06 02:40:14;;;;;;;18.47;14.50;;;3.80;99.90;;;;;;5021383;28;20546;-58
2021/01/06 02:42:40;;;;;;;16.73;13.30;;;3.80;99.90;;;;;;5021117;28;20420;-58
2021/01/06 02:45:09;;;;;;;15.50;13.07;;;3.70;99.90;;;;;;5020470;28;20407;-58
2021/01/06 02:47:35;;;;;;;14.77;12.27;;;3.70;99.90;;;;;;5003544;28;20199;-60
2021/01/06 02:50:03;;;;;;;17.97;14.63;;;3.70;99.90;;;;;;5018818;28;20458;-59
2021/01/06 02:52:36;;;;;;;16.93;13.33;;;3.70;99.90;;;;;;5028731;28;20450;-57
2021/01/06 02:55:07;;;;;;;15.90;13.33;;;3.50;99.90;;;;;;5020976;28;20406;-56
2021/01/06 02:57:35;;;;;;;15.97;12.90;;;3.50;99.90;;;;;;5023810;28;20904;-57
2021/01/06 03:00:00;;;;;;;17.70;13.23;;;3.60;99.90;;;;;;5020459;28;20426;-58
2021/01/06 03:02:26;;;;;;;15.57;13.00;;;3.70;99.90;;;;;;5002706;28;20915;-58
2021/01/06 03:05:12;;;;;;;17.23;12.63;;;3.60;99.90;;;;;;5020327;28;20634;-58
2021/01/06 03:07:38;;;;;;;15.20;12.67;;;3.70;99.90;;;;;;5020746;28;20210;-58
2021/01/06 03:10:05;;;;;;;18.17;13.63;;;3.50;99.90;;;;;;5020457;28;20423;-58
2021/01/06 03:12:34;;;;;;;15.90;13.70;;;3.50;99.90;;;;;;5020089;28;20486;-57
2021/01/06 03:15:00;;;;;;;18.77;15.10;;;3.70;99.90;;;;;;5019222;28;20411;-59
2021/01/06 03:17:29;;;;;;;15.33;12.13;;;3.90;99.90;;;;;;5020298;28;20415;-57
2021/01/06 03:20:05;;;;;;;17.17;12.90;;;3.90;99.90;;;;;;5019742;28;20435;-55
2021/01/06 03:22:33;;;;;;;16.50;12.90;;;4.00;99.90;;;;;;5019540;28;20409;-56
2021/01/06 03:25:09;;;;;;;16.70;12.43;;;3.90;99.90;;;;;;5018554;28;20426;-60
2021/01/06 03:27:36;;;;;;;17.40;14.80;;;3.80;99.90;;;;;;5019956;28;20955;-58
2021/01/06 03:30:06;;;;;;;14.33;12.80;;;3.90;99.90;;;;;;5018435;28;20801;-58
2021/01/06 03:32:58;;;;;;;16.40;13.30;;;4.00;99.90;;;;;;5018877;28;20411;-57
2021/01/06 03:35:31;;;;;;;16.97;13.47;;;4.00;99.90;;;;;;5019767;28;20422;-59
2021/01/06 03:38:15;;;;;;;17.13;13.00;;;4.10;99.90;;;;;;5018990;28;20459;-56
2021/01/06 03:40:47;;;;;;;16.70;13.97;;;4.00;99.90;;;;;;5018861;28;20435;-58
2021/01/06 03:43:14;;;;;;;15.90;13.10;;;4.00;99.90;;;;;;5019705;28;20927;-58
2021/01/06 03:45:43;;;;;;;14.90;13.10;;;3.90;99.90;;;;;;5019580;28;20423;-59
2021/01/06 03:48:14;;;;;;;16.33;14.27;;;3.80;99.90;;;;;;5018439;28;20470;-59
2021/01/06 03:50:42;;;;;;;13.93;11.70;;;3.80;99.90;;;;;;5018986;28;20787;-60
2021/01/06 03:53:32;;;;;;;15.87;13.60;;;3.70;99.90;;;;;;5019533;28;20411;-59
2021/01/06 03:56:03;;;;;;;15.20;13.50;;;3.80;99.90;;;;;;5018896;28;20422;-58
2021/01/06 03:58:48;;;;;;;14.77;13.20;;;3.70;99.90;;;;;;5018834;28;20419;-58
2021/01/06 04:01:37;;;;;;;16.50;13.67;;;3.70;99.90;;;;;;5018079;28;20472;-59
2021/01/06 04:04:03;;;;;;;16.80;13.70;;;3.80;99.90;;;;;;5019142;28;20907;-56
2021/01/06 04:06:31;;;;;;;17.50;14.50;;;3.80;99.90;;;;;;5019306;28;20419;-57
2021/01/06 04:08:58;;;;;;;17.90;15.40;;;3.80;99.90;;;;;;5019087;28;20207;-59
2021/01/06 04:11:30;;;;;;;19.77;15.13;;;3.70;99.90;;;;;;5018655;28;20410;-58
2021/01/06 04:13:57;;;;;;;17.53;14.00;;;3.60;99.90;;;;;;5018233;28;20876;-59
2021/01/06 04:16:23;;;;;;;15.43;12.97;;;3.70;99.90;;;;;;5018510;28;20411;-59
2021/01/06 04:18:48;;;;;;;18.00;14.73;;;3.60;99.90;;;;;;5018795;28;20434;-58
2021/01/06 04:21:14;;;;;;;15.73;13.97;;;3.50;99.90;;;;;;5019079;28;20558;-58
2021/01/06 04:23:40;;;;;;;17.63;14.23;;;3.40;99.90;;;;;;5018648;28;20232;-57
2021/01/06 04:26:06;;;;;;;15.27;12.50;;;3.30;99.90;;;;;;5018926;28;20720;-55
2021/01/06 04:28:36;;;;;;;18.57;14.30;;;3.20;99.90;;;;;;5018635;28;20215;-58
2021/01/06 04:31:08;;;;;;;17.67;13.57;;;3.30;99.90;;;;;;5017735;28;20415;-59
2021/01/06 04:33:47;;;;;;;18.03;14.70;;;3.40;99.90;;;;;;5019148;28;20399;-59
2021/01/06 04:36:20;;;;;;;19.87;15.73;;;3.50;99.90;;;;;;5018007;28;20908;-59
2021/01/06 04:38:49;;;;;;;18.93;15.00;;;3.30;99.90;;;;;;5018071;28;20426;-58
2021/01/06 04:41:26;;;;;;;19.93;14.40;;;3.20;99.90;;;;;;5017589;28;20784;-58
2021/01/06 04:44:00;;;;;;;18.07;14.53;;;3.10;99.90;;;;;;5017698;28;20394;-59
2021/01/06 04:46:48;;;;;;;18.47;14.07;;;3.20;99.90;;;;;;5018307;28;20394;-59
2021/01/06 04:49:43;;;;;;;15.23;12.37;;;3.20;99.90;;;;;;5017892;28;20466;-60
2021/01/06 04:52:48;;;;;;;14.93;12.70;;;3.30;99.90;;;;;;5018521;28;20486;-59
2021/01/06 04:55:39;;;;;;;17.10;14.27;;;3.60;99.90;;;;;;5018303;28;20434;-59
2021/01/06 04:58:35;;;;;;;17.90;13.73;;;3.60;99.90;;;;;;5018347;28;20392;-59
2021/01/06 05:01:04;;;;;;;26.10;17.60;;;3.50;99.90;;;;;;5018430;28;20415;-59
2021/01/06 05:03:36;;;;;;;19.50;14.10;;;3.60;99.90;;;;;;4984976;28;20822;-58
2021/01/06 05:06:36;;;;;;;19.60;15.97;;;3.60;99.90;;;;;;5018040;28;20411;-57
2021/01/06 05:09:15;;;;;;;16.60;12.77;;;3.60;99.90;;;;;;5020915;28;20465;-59
2021/01/06 05:11:59;;;;;;;19.50;14.73;;;3.60;99.90;;;;;;5018040;28;20391;-58
2021/01/06 05:14:37;;;;;;;18.13;13.80;;;3.60;99.90;;;;;;5017879;28;20414;-58
2021/01/06 05:17:03;;;;;;;18.83;13.80;;;3.60;99.90;;;;;;5017992;28;20395;-58
2021/01/06 05:19:32;;;;;;;15.77;13.47;;;3.60;99.90;;;;;;5017021;28;20466;-58
2021/01/06 05:21:59;;;;;;;21.27;14.60;;;3.70;99.90;;;;;;5017426;28;20406;-59
2021/01/06 05:24:44;;;;;;;17.47;14.93;;;3.60;99.90;;;;;;5017483;28;20405;-59
2021/01/06 05:27:13;;;;;;;17.90;14.27;;;3.50;99.90;;;;;;5017093;28;20395;-58
2021/01/06 05:29:44;;;;;;;16.07;13.53;;;3.70;99.90;;;;;;5016506;28;20423;-56
2021/01/06 05:32:32;;;;;;;19.20;14.33;;;3.80;99.90;;;;;;4997539;28;20412;-56
2021/01/06 05:35:08;;;;;;;15.57;11.83;;;3.50;99.90;;;;;;4997167;28;20380;-57
2021/01/06 05:37:34;;;;;;;14.60;12.80;;;3.70;99.90;;;;;;4997800;28;20419;-57
2021/01/06 05:40:09;;;;;;;14.87;13.00;;;3.80;99.90;;;;;;4997056;28;20936;-57
2021/01/06 05:42:41;;;;;;;14.90;12.97;;;3.80;99.90;;;;;;5002374;28;20434;-56
2021/01/06 05:45:08;;;;;;;14.80;11.30;;;3.90;99.90;;;;;;5026967;28;20489;-58
2021/01/06 05:47:41;;;;;;;13.80;12.10;;;3.80;99.90;;;;;;5037007;28;20465;-58
2021/01/06 05:50:17;;;;;;;13.70;11.77;;;3.70;99.90;;;;;;5016599;28;20453;-58
2021/01/06 05:52:52;;;;;;;13.93;12.50;;;3.50;99.90;;;;;;5016816;28;20388;-58
2021/01/06 05:55:19;;;;;;;16.00;13.70;;;3.50;99.90;;;;;;5016667;28;20389;-58
2021/01/06 05:57:54;;;;;;;14.80;12.30;;;3.50;99.90;;;;;;5016283;28;20415;-59
2021/01/06 06:00:41;;;;;;;15.37;12.20;;;3.50;99.90;;;;;;5016973;28;21026;-59
2021/01/06 06:03:38;;;;;;;14.20;11.53;;;3.50;99.90;;;;;;5017231;28;20489;-57
2021/01/06 06:06:48;;;;;;;16.50;13.40;;;3.60;99.90;;;;;;5016738;28;20769;-57
2021/01/06 06:09:33;;;;;;;14.90;11.47;;;3.70;99.90;;;;;;5016342;28;20492;-59
2021/01/06 06:12:36;;;;;;;18.43;13.10;;;3.50;99.90;;;;;;5016417;28;20399;-59
2021/01/06 06:15:13;;;;;;;12.07;10.60;;;3.60;99.90;;;;;;5016877;28;20422;-59
2021/01/06 06:17:51;;;;;;;13.37;11.80;;;3.70;99.90;;;;;;5016864;28;20403;-59
2021/01/06 06:20:44;;;;;;;14.03;9.80;;;3.80;99.90;;;;;;5016145;28;20430;-56
2021/01/06 06:23:30;;;;;;;16.07;12.10;;;3.90;99.90;;;;;;5017235;28;20813;-57
2021/01/06 06:26:05;;;;;;;15.27;11.27;;;4.00;99.90;;;;;;4999666;28;20414;-59
2021/01/06 06:28:42;;;;;;;12.63;9.90;;;4.00;99.90;;;;;;5016743;28;20954;-59
2021/01/06 06:31:43;;;;;;;13.27;9.93;;;4.00;99.90;;;;;;5016432;28;20794;-59
2021/01/06 06:34:09;;;;;;;12.93;10.73;;;3.90;99.90;;;;;;5013333;28;20913;-58
2021/01/06 06:36:45;;;;;;;14.10;11.50;;;3.80;99.90;;;;;;5016607;28;20795;-59
2021/01/06 06:39:40;;;;;;;13.53;11.27;;;3.60;99.90;;;;;;5016487;28;20432;-58
2021/01/06 06:42:27;;;;;;;14.20;12.40;;;3.50;99.90;;;;;;5015805;28;20485;-58
2021/01/06 06:44:59;;;;;;;13.63;11.77;;;3.40;99.90;;;;;;5015730;28;20441;-58
2021/01/06 06:48:05;;;;;;;15.30;11.10;;;3.10;99.90;;;;;;5016084;28;20754;-58
2021/01/06 06:51:02;;;;;;;11.93;10.30;;;3.00;99.90;;;;;;4956089;29;20456;-58
2021/01/06 06:53:50;;;;;;;12.30;11.00;;;3.00;99.90;;;;;;5016290;28;20403;-59
2021/01/06 06:56:16;;;;;;;11.17;9.87;;;2.90;99.90;;;;;;5016517;28;20394;-59
2021/01/06 06:58:57;;;;;;;12.13;9.77;;;3.00;99.90;;;;;;5016989;28;20410;-55
2021/01/06 07:01:33;;;;;;;10.90;9.67;;;2.90;99.90;;;;;;5018179;28;20333;-55
2021/01/06 07:04:21;;;;;;;10.80;9.30;;;3.00;99.90;;;;;;5015959;28;20402;-57
2021/01/06 07:06:52;;;;;;;11.30;10.20;;;3.10;99.90;;;;;;5019271;28;20399;-58
2021/01/06 07:09:28;;;;;;;10.67;9.20;;;3.10;99.90;;;;;;5019451;28;20466;-55
2021/01/06 07:12:07;;;;;;;10.97;9.50;;;3.00;99.90;;;;;;5019725;28;20796;-58
2021/01/06 07:14:37;;;;;;;11.40;10.30;;;3.00;99.90;;;;;;5020391;28;20402;-57
2021/01/06 07:17:09;;;;;;;12.37;9.77;;;3.10;99.90;;;;;;5020217;28;20927;-59
2021/01/06 07:19:49;;;;;;;12.77;10.43;;;3.20;99.90;;;;;;5020513;28;20763;-58
2021/01/06 07:22:30;;;;;;;14.30;11.53;;;3.20;99.90;;;;;;5020061;28;20493;-59
2021/01/06 07:25:19;;;;;;;12.20;10.83;;;3.30;99.90;;;;;;5019564;28;20407;-59
2021/01/06 07:27:50;;;;;;;10.60;9.50;;;3.20;99.90;;;;;;5019847;28;20462;-59
2021/01/06 07:30:36;;;;;;;11.80;10.47;;;3.30;99.90;;;;;;5020148;28;20518;-59
2021/01/06 07:33:38;;;;;;;11.10;9.53;;;3.30;99.90;;;;;;5019602;28;20403;-58
2021/01/06 07:36:09;;;;;;;10.90;9.70;;;3.30;99.90;;;;;;5019225;28;20773;-58
2021/01/06 07:38:35;;;;;;;12.60;10.90;;;3.50;99.90;;;;;;5018908;28;20397;-58
2021/01/06 07:41:01;;;;;;;11.33;9.27;;;3.50;99.90;;;;;;5018932;28;20494;-56
2021/01/06 07:43:31;;;;;;;12.83;10.37;;;3.60;99.90;;;;;;5018486;28;20411;-59
2021/01/06 07:45:59;;;;;;;11.00;9.43;;;3.70;99.90;;;;;;5019118;28;20403;-58
2021/01/06 07:48:43;;;;;;;10.80;9.70;;;3.60;99.90;;;;;;5019096;28;20549;-58
2021/01/06 07:51:18;;;;;;;10.70;9.30;;;3.90;99.90;;;;;;5018831;28;20422;-59
2021/01/06 07:54:14;;;;;;;11.37;9.73;;;4.00;99.90;;;;;;5019325;28;20407;-59
2021/01/06 07:56:39;;;;;;;11.10;10.00;;;4.10;99.90;;;;;;5018667;28;20384;-58
2021/01/06 07:59:23;;;;;;;11.80;9.87;;;4.00;99.90;;;;;;5019194;28;20426;-57
2021/01/06 08:02:19;;;;;;;11.70;10.30;;;3.70;99.90;;;;;;5020079;28;20168;-56
2021/01/06 08:05:22;;;;;;;10.03;9.00;;;3.50;99.90;;;;;;5018709;28;20422;-58
2021/01/06 08:07:48;;;;;;;10.93;9.27;;;3.70;99.90;;;;;;5019449;28;20447;-58
2021/01/06 08:10:29;;;;;;;12.93;10.97;;;3.80;99.90;;;;;;5001801;28;20438;-55
2021/01/06 08:13:29;;;;;;;10.43;9.33;;;3.80;99.90;;;;;;5018701;28;20183;-57
2021/01/06 08:16:32;;;;;;;11.23;10.13;;;3.70;99.90;;;;;;4986592;28;20426;-57
2021/01/06 08:19:12;;;;;;;10.23;9.20;;;3.90;99.90;;;;;;5019106;28;20434;-55
2021/01/06 08:22:19;;;;;;;10.93;9.80;;;3.90;99.90;;;;;;5018909;28;20383;-58
2021/01/06 08:25:14;;;;;;;10.60;9.47;;;4.00;99.90;;;;;;4957727;29;20494;-58
2021/01/06 08:27:39;;;;;;;10.40;9.33;;;4.00;99.90;;;;;;4956929;28;20504;-54
2021/01/06 08:30:25;;;;;;;12.13;10.57;;;3.90;99.90;;;;;;5000054;28;20427;-58
2021/01/06 08:33:07;;;;;;;17.70;12.57;;;3.90;99.90;;;;;;5018745;28;20222;-59
2021/01/06 08:35:38;;;;;;;12.20;9.63;;;3.80;99.90;;;;;;5018005;28;20418;-59
2021/01/06 08:38:27;;;;;;;10.63;9.30;;;3.60;99.90;;;;;;5024077;28;20417;-58
2021/01/06 08:40:52;;;;;;;11.20;10.00;;;3.80;99.90;;;;;;5035429;28;20490;-58
2021/01/06 08:43:18;;;;;;;9.23;8.33;;;3.70;99.90;;;;;;5018468;28;20446;-57
2021/01/06 08:45:56;;;;;;;9.80;8.80;;;3.50;99.90;;;;;;5018489;28;20176;-58
2021/01/06 08:48:35;;;;;;;10.97;9.70;;;3.70;99.90;;;;;;5018027;28;20269;-56
2021/01/06 08:51:10;;;;;;;11.10;10.00;;;3.70;99.90;;;;;;5017859;28;20872;-56
2021/01/06 08:53:38;;;;;;;11.03;9.90;;;3.70;99.90;;;;;;5018465;28;20437;-58
2021/01/06 08:56:09;;;;;;;10.77;9.67;;;3.70;99.90;;;;;;5018001;28;20415;-58
2021/01/06 08:58:47;;;;;;;11.67;10.47;;;3.70;99.90;;;;;;5017903;28;20398;-57
2021/01/06 09:01:40;;;;;;;11.80;9.70;;;3.60;99.90;;;;;;5018061;28;20486;-58
2021/01/06 09:04:14;;;;;;;10.83;9.73;;;3.70;99.90;;;;;;5017588;28;20387;-59
2021/01/06 09:07:16;;;;;;;10.33;9.33;;;3.70;99.90;;;;;;5020227;28;20398;-58
2021/01/06 09:10:06;;;;;;;11.83;10.63;;;3.60;99.90;;;;;;5018826;28;20422;-58
2021/01/06 09:12:55;;;;;;;10.20;9.17;;;3.50;99.90;;;;;;5018391;28;20421;-56
2021/01/06 09:15:44;;;;;;;11.37;9.40;;;3.50;99.90;;;;;;5018559;28;20411;-59
2021/01/06 09:18:15;;;;;;;10.23;9.13;;;3.40;99.90;;;;;;5018812;28;20391;-58
2021/01/06 09:21:17;;;;;;;11.30;9.43;;;3.30;99.90;;;;;;5017739;28;20437;-56
2021/01/06 09:23:47;;;;;;;10.07;9.07;;;3.40;99.90;;;;;;5018387;28;20383;-57
2021/01/06 09:26:16;;;;;;;11.10;9.73;;;3.50;99.90;;;;;;5017555;28;20474;-58
2021/01/06 09:28:47;;;;;;;10.60;9.53;;;3.60;99.90;;;;;;5017026;28;20450;-57
2021/01/06 09:31:15;;;;;;;11.67;10.43;;;3.30;99.90;;;;;;5014242;28;20461;-60
2021/01/06 09:33:41;;;;;;;10.80;9.03;;;3.40;99.90;;;;;;5013799;28;20413;-61
2021/01/06 09:36:08;;;;;;;10.60;9.10;;;3.40;99.90;;;;;;5014212;28;20436;-61
2021/01/06 09:38:40;;;;;;;14.20;10.73;;;3.40;99.90;;;;;;4996273;28;20450;-61
2021/01/06 09:41:11;;;;;;;11.30;10.00;;;3.40;99.90;;;;;;5013708;28;20474;-62
2021/01/06 09:44:00;;;;;;;11.47;10.37;;;3.40;99.90;;;;;;5013600;28;20466;-60
2021/01/06 09:46:33;;;;;;;11.07;9.90;;;3.60;99.90;;;;;;5013982;28;20758;-61
2021/01/06 09:49:03;;;;;;;13.47;10.83;;;3.50;99.90;;;;;;5013514;28;20470;-61
2021/01/06 09:51:29;;;;;;;10.60;9.50;;;3.70;99.90;;;;;;5013975;28;20458;-61
2021/01/06 09:53:59;;;;;;;10.57;9.47;;;3.90;99.90;;;;;;5014118;28;20904;-61
2021/01/06 09:56:27;;;;;;;11.60;10.50;;;3.90;99.90;;;;;;4995826;28;20518;-61
2021/01/06 09:58:53;;;;;;;14.03;12.60;;;3.90;99.90;;;;;;5013457;28;20480;-61
2021/01/06 10:01:41;;;;;;;11.23;10.03;;;3.90;99.90;;;;;;5013714;28;20411;-62
2021/01/06 10:04:22;;;;;;;9.33;8.43;;;4.00;99.90;;;;;;5013685;28;20411;-60
2021/01/06 10:06:53;;;;;;;11.30;10.20;;;4.00;99.90;;;;;;5013982;28;20411;-62
2021/01/06 10:09:36;;;;;;;10.63;9.60;;;4.00;99.90;;;;;;5013681;28;20886;-61
2021/01/06 10:12:22;;;;;;;10.60;9.50;;;3.90;99.90;;;;;;5013281;28;20963;-61
2021/01/06 10:15:10;;;;;;;11.20;10.00;;;4.00;99.90;;;;;;5013371;28;20387;-60
2021/01/06 10:17:49;;;;;;;11.33;10.13;;;4.00;99.90;;;;;;5013304;28;20823;-61
2021/01/06 10:20:30;;;;;;;10.63;9.47;;;4.00;99.90;;;;;;5014821;28;20429;-60
2021/01/06 10:23:19;;;;;;;10.00;8.90;;;3.80;99.90;;;;;;5017121;28;20445;-60
2021/01/06 10:25:58;;;;;;;11.20;10.07;;;3.80;99.90;;;;;;5016514;28;20510;-59
2021/01/06 10:28:40;;;;;;;12.60;10.93;;;4.00;99.90;;;;;;5016920;28;20446;-58
2021/01/06 10:31:22;;;;;;;11.37;10.27;;;4.10;99.90;;;;;;5016779;28;20792;-60
2021/01/06 10:34:08;;;;;;;10.00;9.03;;;4.10;99.90;;;;;;5016608;28;20419;-57
2021/01/06 10:37:08;;;;;;;11.67;10.10;;;3.70;99.90;;;;;;5016990;28;20435;-60
2021/01/06 10:39:43;;;;;;;11.57;10.37;;;3.80;99.90;;;;;;5017777;28;20822;-60
2021/01/06 10:42:33;;;;;;;12.60;11.30;;;3.70;99.90;;;;;;5020411;28;20410;-60
2021/01/06 10:45:07;;;;;;;13.63;11.30;;;3.80;99.90;;;;;;5020712;28;20454;-59
2021/01/06 10:47:32;;;;;;;12.03;10.00;;;3.80;99.90;;;;;;5003893;28;20414;-60
2021/01/06 10:50:25;;;;;;;10.73;9.63;;;3.80;99.90;;;;;;5022028;28;20959;-60
2021/01/06 10:53:02;;;;;;;11.43;10.10;;;3.80;99.90;;;;;;5021186;28;20652;-60
2021/01/06 10:55:39;;;;;;;12.97;10.33;;;3.70;99.90;;;;;;5021838;28;20454;-58
2021/01/06 10:58:33;;;;;;;13.10;11.70;;;3.80;99.90;;;;;;5022299;28;20448;-58
2021/01/06 11:01:18;;;;;;;12.37;10.80;;;3.70;99.90;;;;;;5041798;28;20398;-58
2021/01/06 11:03:47;;;;;;;11.63;10.37;;;3.90;99.90;;;;;;5041537;28;20395;-58
2021/01/06 11:06:26;;;;;;;14.30;10.33;;;4.00;99.90;;;;;;5041425;28;20409;-59
2021/01/06 11:09:20;;;;;;;11.60;10.40;;;4.00;99.90;;;;;;5041074;28;20998;-58
2021/01/06 11:11:58;;;;;;;10.57;9.40;;;4.10;99.90;;;;;;5041261;28;20397;-59
2021/01/06 11:15:01;;;;;;;13.60;11.03;;;4.10;99.90;;;;;;5041918;28;20390;-58
2021/01/06 11:17:31;;;;;;;14.20;12.07;;;4.00;99.90;;;;;;5041299;28;20405;-60
2021/01/06 11:20:15;;;;;;;12.73;11.40;;;4.00;99.90;;;;;;5040405;28;20792;-59
2021/01/06 11:22:43;;;;;;;12.93;11.50;;;4.00;99.90;;;;;;5040518;28;20379;-56
2021/01/06 11:25:38;;;;;;;16.33;11.73;;;4.10;99.90;;;;;;5039606;28;20406;-57
2021/01/06 11:28:04;;;;;;;12.47;11.17;;;4.00;99.90;;;;;;5002915;28;20554;-56
2021/01/06 11:30:39;;;;;;;13.10;10.73;;;4.10;99.90;;;;;;5029452;28;20445;-57
2021/01/06 11:33:25;;;;;;;12.97;11.67;;;4.10;99.90;;;;;;5020641;28;20144;-58
2021/01/06 11:35:51;;;;;;;12.87;11.13;;;4.00;99.90;;;;;;5019098;28;20427;-57
2021/01/06 11:38:39;;;;;;;12.10;10.80;;;4.00;99.90;;;;;;5018774;28;20418;-57
2021/01/06 11:41:25;;;;;;;11.43;10.33;;;4.20;99.90;;;;;;5018787;28;20762;-58
2021/01/06 11:44:14;;;;;;;11.77;10.57;;;4.10;99.90;;;;;;4978883;28;20505;-56
2021/01/06 11:46:49;;;;;;;12.77;11.47;;;4.00;99.90;;;;;;4959324;28;20415;-55
2021/01/06 11:49:29;;;;;;;13.37;10.47;;;4.10;99.90;;;;;;5019169;28;20845;-59
2021/01/06 11:52:27;;;;;;;12.70;10.27;;;3.90;99.90;;;;;;5018192;28;20394;-57
2021/01/06 11:55:12;;;;;;;13.20;10.17;;;3.90;99.90;;;;;;5019921;28;20396;-59
2021/01/06 11:57:50;;;;;;;14.43;12.40;;;4.10;99.90;;;;;;5019684;28;20419;-59
2021/01/06 12:00:36;;;;;;;12.10;10.90;;;4.10;99.90;;;;;;5021022;28;20430;-59
2021/01/06 12:03:07;;;;;;;11.87;10.67;;;4.20;99.90;;;;;;5020476;28;20429;-59
2021/01/06 12:05:55;;;;;;;15.20;11.67;;;4.10;99.90;;;;;;5020348;28;20433;-59
2021/01/06 12:08:42;;;;;;;14.00;11.33;;;3.90;99.90;;;;;;5020072;28;20916;-58
2021/01/06 12:11:28;;;;;;;15.07;11.73;;;4.00;99.90;;;;;;5020496;28;20388;-60
2021/01/06 12:14:16;;;;;;;11.77;10.60;;;4.00;99.90;;;;;;5020134;28;20399;-60
2021/01/06 12:16:51;;;;;;;13.67;12.27;;;4.20;99.90;;;;;;5020954;28;20395;-57
2021/01/06 12:19:16;;;;;;;12.50;11.20;;;4.20;99.90;;;;;;5020932;28;20426;-58
2021/01/06 12:21:46;;;;;;;15.73;13.30;;;4.30;99.90;;;;;;5021201;28;20407;-58
2021/01/06 12:24:30;;;;;;;13.40;12.00;;;4.30;99.90;;;;;;5021192;28;20247;-58
2021/01/06 12:27:05;;;;;;;13.40;12.00;;;4.20;99.90;;;;;;5019008;28;20896;-57
2021/01/06 12:29:49;;;;;;;12.93;11.63;;;4.00;99.90;;;;;;5017922;28;20460;-57
2021/01/06 12:32:40;;;;;;;13.90;12.40;;;3.90;99.90;;;;;;5019005;28;20829;-56
2021/01/06 12:35:34;;;;;;;17.30;13.83;;;3.90;99.90;;;;;;5021263;28;20391;-60
2021/01/06 12:38:05;;;;;;;13.67;12.27;;;3.90;99.90;;;;;;5021751;28;20399;-60
2021/01/06 12:40:32;;;;;;;14.20;12.70;;;3.80;99.90;;;;;;5019057;28;20438;-57
2021/01/06 12:43:04;;;;;;;14.47;12.93;;;3.70;99.90;;;;;;5018125;28;20420;-59
2021/01/06 12:45:39;;;;;;;14.27;11.20;;;3.70;99.90;;;;;;4999989;28;20422;-59
2021/01/06 12:48:16;;;;;;;13.90;11.80;;;3.80;99.90;;;;;;5018065;28;20500;-58
2021/01/06 12:51:05;;;;;;;14.57;12.90;;;3.90;99.90;;;;;;5020091;28;20503;-58
2021/01/06 12:53:37;;;;;;;11.70;10.33;;;3.90;99.90;;;;;;5019642;28;20398;-59
2021/01/06 12:56:06;;;;;;;12.23;10.27;;;3.80;99.90;;;;;;5018970;28;20407;-62
2021/01/06 12:58:47;;;;;;;11.50;10.30;;;3.70;99.90;;;;;;5018189;28;20399;-59
2021/01/06 13:01:22;;;;;;;13.73;11.63;;;4.00;99.90;;;;;;5018144;28;20395;-59
2021/01/06 13:04:05;;;;;;;20.13;13.10;;;4.00;99.90;;;;;;5017684;28;20725;-58
2021/01/06 13:06:31;;;;;;;11.20;10.00;;;4.00;99.90;;;;;;5018446;28;20891;-58
2021/01/06 13:08:59;;;;;;;10.40;8.90;;;3.80;99.90;;;;;;5015094;28;20462;-60
2021/01/06 13:12:00;;;;;;;10.40;9.40;;;3.80;99.90;;;;;;5014285;28;20168;-62
2021/01/06 13:14:35;;;;;;;12.53;11.23;;;3.90;99.90;;;;;;5011574;28;20454;-61
2021/01/06 13:17:14;;;;;;;13.07;10.40;;;4.00;99.90;;;;;;5013852;28;20445;-60
2021/01/06 13:19:58;;;;;;;11.27;10.17;;;4.00;99.90;;;;;;5014042;28;20426;-62
2021/01/06 13:22:42;;;;;;;10.37;9.37;;;4.10;99.90;;;;;;5013798;28;20486;-61
2021/01/06 13:25:34;;;;;;;9.60;8.63;;;4.10;99.90;;;;;;5013768;28;20411;-62